Time;durP1;ratioP1;P1;durP2;ratioP2;P2;SDS_P1;SDS_P2;PMS_P1;PMS_P2;Temp;Humidity;BMP_temperature;BMP_pressure;BME280_temperature;BME280_humidity;BME280_pressure;Samples;Min_cycle;Max_cycle;Signal;HPM_P1;HPM_P2
2022/07/16 00:24:55;;;;;;;4.85;4.45;;;;;;;;;;5039900;28;20059;-70
2022/07/16 00:27:21;;;;;;;9.60;4.50;;;;;;;;;;5042530;28;20032;-70
2022/07/16 00:29:48;;;;;;;4.97;4.25;;;;;;;;;;5041928;28;20531;-69
2022/07/16 00:32:14;;;;;;;6.93;4.53;;;;;;;;;;5045342;28;20477;-70
2022/07/16 00:34:41;;;;;;;4.80;4.18;;;;;;;;;;5048708;28;20108;-70
2022/07/16 00:37:07;;;;;;;5.20;4.15;;;;;;;;;;5045662;28;20033;-71
2022/07/16 00:39:33;;;;;;;5.03;4.57;;;;;;;;;;5044030;28;20026;-71
2022/07/16 00:42:00;;;;;;;4.55;4.15;;;;;;;;;;5049067;28;20021;-70
2022/07/16 00:44:26;;;;;;;5.90;3.92;;;;;;;;;;5048259;28;20086;-71
2022/07/16 00:46:52;;;;;;;5.47;4.32;;;;;;;;;;5047425;28;20489;-70
2022/07/16 00:49:19;;;;;;;6.53;4.40;;;;;;;;;;5049329;28;20380;-70
2022/07/16 00:51:47;;;;;;;5.15;4.38;;;;;;;;;;5048528;28;20362;-73
2022/07/16 00:54:13;;;;;;;4.10;3.80;;;;;;;;;;5047855;28;20021;-70
2022/07/16 00:56:40;;;;;;;4.50;4.10;;;;;;;;;;5041889;28;20079;-71
2022/07/16 00:59:06;;;;;;;4.70;3.75;;;;;;;;;;5043440;28;20033;-70
2022/07/16 01:01:32;;;;;;;4.57;3.90;;;;;;;;;;5042154;28;20522;-70
2022/07/16 01:03:59;;;;;;;4.50;4.00;;;;;;;;;;5040127;28;20025;-71
2022/07/16 01:06:25;;;;;;;6.88;4.40;;;;;;;;;;5043560;28;20024;-71
2022/07/16 01:08:51;;;;;;;5.38;4.20;;;;;;;;;;5042984;28;20045;-73
2022/07/16 01:11:19;;;;;;;4.78;4.38;;;;;;;;;;5045020;28;20127;-69
2022/07/16 01:13:46;;;;;;;4.63;4.20;;;;;;;;;;5040355;28;20469;-70
2022/07/16 01:16:13;;;;;;;5.38;4.07;;;;;;;;;;5044122;28;20537;-70
2022/07/16 01:18:39;;;;;;;4.72;4.25;;;;;;;;;;5041947;28;20052;-71
2022/07/16 01:21:06;;;;;;;4.43;4.00;;;;;;;;;;5043361;28;20103;-71
2022/07/16 01:23:32;;;;;;;4.20;3.80;;;;;;;;;;5043805;28;20769;-70
2022/07/16 01:25:58;;;;;;;5.60;4.43;;;;;;;;;;5048889;28;20025;-73
2022/07/16 01:28:25;;;;;;;10.55;4.10;;;;;;;;;;5045598;28;20495;-70
2022/07/16 01:30:51;;;;;;;12.48;4.10;;;;;;;;;;5046980;28;20033;-70
2022/07/16 01:33:23;;;;;;;5.85;4.40;;;;;;;;;;5047957;28;20029;-70
2022/07/16 01:35:54;;;;;;;5.25;4.68;;;;;;;;;;5043948;28;20039;-73
2022/07/16 01:38:21;;;;;;;6.05;4.55;;;;;;;;;;5044211;28;20025;-70
2022/07/16 01:40:47;;;;;;;7.70;4.57;;;;;;;;;;5044476;28;20025;-71
2022/07/16 01:43:14;;;;;;;11.10;4.70;;;;;;;;;;5040826;28;20025;-70
2022/07/16 01:45:40;;;;;;;8.57;4.85;;;;;;;;;;5042694;28;20481;-74
2022/07/16 01:48:06;;;;;;;5.30;4.80;;;;;;;;;;5041341;28;20022;-70
2022/07/16 01:50:32;;;;;;;4.65;4.22;;;;;;;;;;5041214;28;20075;-70
2022/07/16 01:52:59;;;;;;;5.00;4.60;;;;;;;;;;5040376;28;20083;-73
2022/07/16 01:55:25;;;;;;;4.72;4.13;;;;;;;;;;5030492;28;20469;-70
2022/07/16 01:57:51;;;;;;;4.88;4.40;;;;;;;;;;5041257;28;20625;-70
2022/07/16 02:00:17;;;;;;;4.43;4.05;;;;;;;;;;5047577;28;20018;-74
2022/07/16 02:02:43;;;;;;;5.85;4.43;;;;;;;;;;5047607;28;20528;-72
2022/07/16 02:05:10;;;;;;;4.72;4.22;;;;;;;;;;5048635;28;20485;-70
2022/07/16 02:07:36;;;;;;;4.90;4.43;;;;;;;;;;5045293;28;20028;-71
2022/07/16 02:10:02;;;;;;;4.80;4.35;;;;;;;;;;5044428;28;20055;-71
2022/07/16 02:12:28;;;;;;;5.38;4.65;;;;;;;;;;5040901;28;20386;-72
2022/07/16 02:14:54;;;;;;;5.40;4.32;;;;;;;;;;5044353;28;20408;-71
2022/07/16 02:17:21;;;;;;;4.95;4.55;;;;;;;;;;5040493;28;20103;-71
2022/07/16 02:19:47;;;;;;;4.60;4.20;;;;;;;;;;5043852;28;20075;-72
2022/07/16 02:22:14;;;;;;;5.05;4.60;;;;;;;;;;5043206;28;20420;-72
2022/07/16 02:24:41;;;;;;;6.07;4.35;;;;;;;;;;5045765;28;20067;-70
2022/07/16 02:27:07;;;;;;;5.25;4.63;;;;;;;;;;5047778;28;20029;-73
2022/07/16 02:29:33;;;;;;;4.90;4.47;;;;;;;;;;5043117;28;20035;-75
2022/07/16 02:31:59;;;;;;;8.20;4.85;;;;;;;;;;5043597;28;20030;-72
2022/07/16 02:34:26;;;;;;;5.10;4.63;;;;;;;;;;5040588;28;20025;-69
2022/07/16 02:36:52;;;;;;;7.32;5.20;;;;;;;;;;5045828;28;20025;-73
2022/07/16 02:39:18;;;;;;;5.60;5.10;;;;;;;;;;5042766;28;20485;-71
2022/07/16 02:41:44;;;;;;;6.57;5.38;;;;;;;;;;5050796;28;20060;-71
2022/07/16 02:44:10;;;;;;;5.80;5.13;;;;;;;;;;5051307;28;20040;-72
2022/07/16 02:46:36;;;;;;;6.03;5.20;;;;;;;;;;5042895;28;20382;-74
2022/07/16 02:49:02;;;;;;;5.60;5.15;;;;;;;;;;5046056;28;20037;-72
2022/07/16 02:51:29;;;;;;;6.15;5.43;;;;;;;;;;5038972;28;20035;-71
2022/07/16 02:53:55;;;;;;;5.50;5.07;;;;;;;;;;5042089;28;20025;-72
2022/07/16 02:56:21;;;;;;;6.63;5.18;;;;;;;;;;5046619;28;20029;-71
2022/07/16 02:58:56;;;;;;;5.40;4.90;;;;;;;;;;5040556;28;20124;-73
2022/07/16 03:01:22;;;;;;;5.22;4.72;;;;;;;;;;5028133;28;20075;-72
2022/07/16 03:03:49;;;;;;;5.50;5.00;;;;;;;;;;5045267;28;20029;-70
2022/07/16 03:06:15;;;;;;;5.63;4.97;;;;;;;;;;5040942;28;20028;-70
2022/07/16 03:08:41;;;;;;;5.57;5.03;;;;;;;;;;5034959;28;20775;-74
2022/07/16 03:11:08;;;;;;;5.75;5.05;;;;;;;;;;5041003;28;20028;-71
2022/07/16 03:13:34;;;;;;;5.15;4.65;;;;;;;;;;5042356;28;20017;-74
2022/07/16 03:16:00;;;;;;;5.53;5.10;;;;;;;;;;5043100;28;20025;-73
2022/07/16 03:18:26;;;;;;;5.63;5.18;;;;;;;;;;5037416;28;20082;-73
2022/07/16 03:20:52;;;;;;;5.30;4.80;;;;;;;;;;5032604;28;20131;-72
2022/07/16 03:23:19;;;;;;;5.35;4.88;;;;;;;;;;5036499;28;20118;-73
2022/07/16 03:25:45;;;;;;;5.72;5.22;;;;;;;;;;5032210;28;20137;-73
2022/07/16 03:28:11;;;;;;;5.28;4.55;;;;;;;;;;5035939;28;20564;-72
2022/07/16 03:30:37;;;;;;;6.57;4.97;;;;;;;;;;5035588;28;20032;-73
2022/07/16 03:33:03;;;;;;;5.45;5.03;;;;;;;;;;5032120;28;20041;-70
2022/07/16 03:35:30;;;;;;;5.65;5.15;;;;;;;;;;5022395;28;20643;-74
2022/07/16 03:40:41;;;;;;;5.40;4.93;;;;;;;;;;5031240;28;20055;-72
2022/07/16 03:43:07;;;;;;;5.18;4.57;;;;;;;;;;5033471;28;20469;-71
2022/07/16 03:45:33;;;;;;;5.43;4.93;;;;;;;;;;5020414;28;20036;-71
2022/07/16 03:47:59;;;;;;;4.72;4.32;;;;;;;;;;5034667;28;20524;-71
2022/07/16 03:50:26;;;;;;;5.10;4.70;;;;;;;;;;5033443;28;20501;-76
2022/07/16 03:52:53;;;;;;;4.95;4.55;;;;;;;;;;5036336;28;20817;-71
2022/07/16 03:55:19;;;;;;;5.30;4.88;;;;;;;;;;5016938;28;20021;-71
2022/07/16 04:31:39;;;;;;;4.22;3.83;;;;;;;;;;4801019;28;20557;-89
2022/07/16 04:34:08;;;;;;;4.60;4.20;;;;;;;;;;5048850;28;20487;-92
2022/07/16 04:36:36;;;;;;;4.45;4.03;;;;;;;;;;5036495;28;20021;-89
2022/07/16 04:39:02;;;;;;;4.78;3.83;;;;;;;;;;5042823;28;20024;-89
2022/07/16 04:41:28;;;;;;;4.35;3.95;;;;;;;;;;5056592;28;20032;-89
2022/07/16 04:43:59;;;;;;;4.18;3.88;;;;;;;;;;5074067;28;20021;-90
2022/07/16 04:46:25;;;;;;;7.68;4.35;;;;;;;;;;5050228;28;20025;-90
2022/07/16 04:48:52;;;;;;;4.30;3.90;;;;;;;;;;5048022;28;20021;-90
2022/07/16 04:51:18;;;;;;;4.68;4.10;;;;;;;;;;5051960;28;20029;-90
2022/07/16 04:53:44;;;;;;;4.20;3.78;;;;;;;;;;5047464;28;20025;-90
2022/07/16 04:56:10;;;;;;;4.20;3.90;;;;;;;;;;5056727;28;20111;-90
2022/07/16 04:58:38;;;;;;;5.05;3.83;;;;;;;;;;5056449;28;20123;-90
2022/07/16 05:01:05;;;;;;;7.40;4.13;;;;;;;;;;5069675;28;20076;-91
2022/07/16 05:03:32;;;;;;;4.50;4.00;;;;;;;;;;5049676;28;20017;-91
2022/07/16 05:05:58;;;;;;;8.50;4.25;;;;;;;;;;5036579;28;20021;-89
2022/07/16 05:08:26;;;;;;;5.05;3.60;;;;;;;;;;5036308;28;20067;-91
2022/07/16 05:10:52;;;;;;;4.07;3.67;;;;;;;;;;5036763;28;20021;-90
2022/07/16 05:13:18;;;;;;;4.00;3.70;;;;;;;;;;5036393;28;20395;-90
2022/07/16 05:15:45;;;;;;;5.18;3.70;;;;;;;;;;5037021;28;20021;-89
2022/07/16 05:18:11;;;;;;;5.85;3.72;;;;;;;;;;5036396;28;20051;-90
2022/07/16 05:20:37;;;;;;;4.22;3.83;;;;;;;;;;5036461;28;20505;-89
2022/07/16 05:23:05;;;;;;;4.47;4.03;;;;;;;;;;5036402;28;20040;-90
2022/07/16 05:25:32;;;;;;;5.00;4.45;;;;;;;;;;5036702;28;20029;-91
2022/07/16 05:28:00;;;;;;;6.50;5.90;;;;;;;;;;5036698;28;20025;-91
2022/07/16 05:30:29;;;;;;;8.55;6.22;;;;;;;;;;5049762;28;20027;-92
2022/07/16 05:32:55;;;;;;;9.32;6.70;;;;;;;;;;5036174;28;20049;-90
2022/07/16 05:35:21;;;;;;;7.82;7.00;;;;;;;;;;5036294;28;20429;-90
2022/07/16 05:37:49;;;;;;;8.25;6.72;;;;;;;;;;5049358;28;20056;-90
2022/07/16 05:40:16;;;;;;;6.82;5.78;;;;;;;;;;5036224;28;20536;-90
2022/07/16 05:42:42;;;;;;;6.53;5.60;;;;;;;;;;5042272;28;20021;-90
2022/07/16 05:45:11;;;;;;;5.95;5.40;;;;;;;;;;5043164;28;20116;-89
2022/07/16 05:47:37;;;;;;;7.88;6.05;;;;;;;;;;5037342;28;20025;-90
2022/07/16 05:50:07;;;;;;;5.95;5.15;;;;;;;;;;5049143;28;20081;-90
2022/07/16 05:52:35;;;;;;;7.20;5.22;;;;;;;;;;5037491;28;20025;-91
2022/07/16 05:55:01;;;;;;;6.30;5.38;;;;;;;;;;5049933;28;20111;-90
2022/07/16 05:57:28;;;;;;;6.07;5.38;;;;;;;;;;5048666;28;20063;-89
2022/07/16 05:59:54;;;;;;;6.07;5.55;;;;;;;;;;5036104;28;20475;-90
2022/07/16 06:02:20;;;;;;;6.32;5.75;;;;;;;;;;5035987;28;20540;-90
2022/07/16 06:04:48;;;;;;;8.48;5.78;;;;;;;;;;5040299;28;20032;-90
2022/07/16 06:07:17;;;;;;;6.00;5.50;;;;;;;;;;5051209;28;20021;-90
2022/07/16 06:09:43;;;;;;;6.53;5.90;;;;;;;;;;5057123;28;20029;-90
2022/07/16 06:12:11;;;;;;;6.20;5.35;;;;;;;;;;5022977;28;20072;-88
2022/07/16 06:14:37;;;;;;;6.18;5.57;;;;;;;;;;5054308;28;20027;-88
2022/07/16 06:17:03;;;;;;;8.50;6.78;;;;;;;;;;5050796;28;20047;-89
2022/07/16 06:19:29;;;;;;;7.80;5.85;;;;;;;;;;5040611;28;20017;-88
2022/07/16 06:21:55;;;;;;;5.85;5.35;;;;;;;;;;5060455;28;20471;-90
2022/07/16 06:24:21;;;;;;;4.50;4.10;;;;;;;;;;5045208;28;20033;-89
2022/07/16 06:26:47;;;;;;;10.02;5.25;;;;;;;;;;5058697;28;20028;-90
2022/07/16 06:29:14;;;;;;;6.22;4.55;;;;;;;;;;5046115;28;20416;-89
2022/07/16 06:31:41;;;;;;;5.20;4.70;;;;;;;;;;5047955;28;20105;-89
2022/07/16 06:34:07;;;;;;;5.03;4.53;;;;;;;;;;5071852;28;20466;-90
2022/07/16 06:36:33;;;;;;;7.53;4.35;;;;;;;;;;5050064;28;20029;-90
2022/07/16 06:38:59;;;;;;;4.78;3.95;;;;;;;;;;5039557;28;20092;-90
2022/07/16 06:41:28;;;;;;;4.50;4.10;;;;;;;;;;5039154;28;20543;-87
2022/07/16 06:43:54;;;;;;;4.82;4.20;;;;;;;;;;5038615;28;20479;-89
2022/07/16 06:46:20;;;;;;;4.40;4.10;;;;;;;;;;5065943;28;20076;-89
2022/07/16 06:48:46;;;;;;;4.57;4.07;;;;;;;;;;5042226;28;20033;-88
2022/07/16 06:51:13;;;;;;;5.03;3.88;;;;;;;;;;5048028;28;20032;-88
2022/07/16 06:53:39;;;;;;;6.82;4.65;;;;;;;;;;5059718;28;20025;-89
2022/07/16 06:56:08;;;;;;;4.55;4.15;;;;;;;;;;5047869;28;20036;-90
2022/07/16 06:58:37;;;;;;;5.03;4.25;;;;;;;;;;5054926;28;20016;-89
2022/07/16 07:01:03;;;;;;;4.28;3.97;;;;;;;;;;5038559;28;20067;-90
2022/07/16 07:03:29;;;;;;;6.25;4.03;;;;;;;;;;5038805;28;20029;-89
2022/07/16 07:05:58;;;;;;;4.25;3.85;;;;;;;;;;5038659;28;20060;-89
2022/07/16 07:08:26;;;;;;;3.97;3.58;;;;;;;;;;5038821;28;20029;-89
2022/07/16 07:10:55;;;;;;;3.97;3.33;;;;;;;;;;5038693;28;20029;-91
2022/07/16 07:13:21;;;;;;;4.90;3.88;;;;;;;;;;5038357;28;20502;-91
2022/07/16 07:15:50;;;;;;;3.72;3.38;;;;;;;;;;5038033;28;20488;-89
2022/07/16 07:18:16;;;;;;;3.65;3.25;;;;;;;;;;5038359;28;20027;-90
2022/07/16 07:20:42;;;;;;;4.38;3.20;;;;;;;;;;5038564;28;20021;-89
2022/07/16 07:23:08;;;;;;;3.50;3.20;;;;;;;;;;5052346;28;20036;-90
2022/07/16 07:25:34;;;;;;;5.32;3.58;;;;;;;;;;5038259;28;20541;-89
2022/07/16 07:28:01;;;;;;;4.30;3.60;;;;;;;;;;5038466;28;20035;-90
2022/07/16 07:30:27;;;;;;;3.97;3.25;;;;;;;;;;5038152;28;20043;-90
2022/07/16 07:32:53;;;;;;;3.88;3.45;;;;;;;;;;5037868;28;20045;-90
2022/07/16 07:35:21;;;;;;;4.18;3.72;;;;;;;;;;5038139;28;20378;-89
2022/07/16 07:37:48;;;;;;;4.70;3.60;;;;;;;;;;5057208;28;20021;-90
2022/07/16 07:40:16;;;;;;;4.30;3.90;;;;;;;;;;5057772;28;20025;-90
2022/07/16 07:42:42;;;;;;;5.97;3.88;;;;;;;;;;5038113;28;20111;-89
2022/07/16 07:45:11;;;;;;;3.80;3.45;;;;;;;;;;5037837;28;20021;-90
2022/07/16 07:47:38;;;;;;;3.88;3.58;;;;;;;;;;5037872;28;20021;-89
2022/07/16 07:50:06;;;;;;;4.75;3.72;;;;;;;;;;5038089;28;20497;-89
2022/07/16 07:52:32;;;;;;;5.07;3.90;;;;;;;;;;5037574;28;20023;-89
2022/07/16 07:54:59;;;;;;;5.38;4.03;;;;;;;;;;5050857;28;20036;-89
2022/07/16 07:57:25;;;;;;;4.13;3.50;;;;;;;;;;5057457;28;20038;-90
2022/07/16 07:59:51;;;;;;;4.28;3.88;;;;;;;;;;5043780;28;20025;-89
2022/07/16 08:02:17;;;;;;;3.70;3.40;;;;;;;;;;5037291;28;20509;-89
2022/07/16 08:04:46;;;;;;;3.58;3.28;;;;;;;;;;5050625;28;20449;-89
2022/07/16 08:07:12;;;;;;;3.65;3.35;;;;;;;;;;5037745;28;20055;-89
2022/07/16 08:09:38;;;;;;;3.22;3.03;;;;;;;;;;5036558;28;20471;-90
2022/07/16 08:12:07;;;;;;;3.85;3.40;;;;;;;;;;5037776;28;20029;-90
2022/07/16 08:14:33;;;;;;;5.25;3.42;;;;;;;;;;5038034;28;20025;-89
2022/07/16 08:16:59;;;;;;;5.22;3.63;;;;;;;;;;5037107;28;20487;-90
2022/07/16 08:19:26;;;;;;;4.07;3.67;;;;;;;;;;5054907;28;20021;-89
2022/07/16 08:21:52;;;;;;;4.80;3.97;;;;;;;;;;5036951;28;20128;-90
2022/07/16 08:27:04;;;;;;;3.80;3.45;;;;;;;;;;5055010;28;20518;-90
2022/07/16 08:29:30;;;;;;;3.88;3.45;;;;;;;;;;5036875;28;20060;-90
2022/07/16 08:32:12;;;;;;;4.03;3.65;;;;;;;;;;5036820;28;20051;-90
2022/07/16 08:34:38;;;;;;;;;;;;;;;;;;5037260;28;20017;-89
2022/07/16 08:37:10;;;;;;;7.93;3.53;;;;;;;;;;5038642;28;19931;-90
2022/07/16 08:39:46;;;;;;;4.70;3.45;;;;;;;;;;5036846;28;20025;-91
2022/07/16 08:42:13;;;;;;;3.75;3.25;;;;;;;;;;5036879;28;20028;-91
2022/07/16 08:44:44;;;;;;;4.00;3.60;;;;;;;;;;5036908;28;20025;-90
2022/07/16 08:47:10;;;;;;;4.82;3.58;;;;;;;;;;5037436;28;20452;-89
2022/07/16 08:49:39;;;;;;;3.90;3.58;;;;;;;;;;5036755;28;20029;-91
2022/07/16 08:52:07;;;;;;;5.60;3.70;;;;;;;;;;5036758;28;20025;-90
2022/07/16 08:54:34;;;;;;;5.00;3.60;;;;;;;;;;5036800;28;20021;-91
2022/07/16 08:57:00;;;;;;;5.03;3.83;;;;;;;;;;5036669;28;20028;-89
2022/07/16 08:59:27;;;;;;;3.97;3.58;;;;;;;;;;5036989;28;20104;-90
2022/07/16 09:01:53;;;;;;;4.38;3.97;;;;;;;;;;5036508;28;20112;-90
2022/07/16 09:04:20;;;;;;;5.40;3.72;;;;;;;;;;5036745;28;20025;-89
2022/07/16 09:06:49;;;;;;;4.30;3.90;;;;;;;;;;5050726;28;20027;-90
2022/07/16 09:09:15;;;;;;;4.75;3.42;;;;;;;;;;5053062;28;20430;-91
2022/07/16 09:11:41;;;;;;;5.47;3.83;;;;;;;;;;5053012;28;20025;-90
2022/07/16 09:14:13;;;;;;;4.47;3.83;;;;;;;;;;5053536;28;20044;-90
2022/07/16 09:16:39;;;;;;;4.00;3.70;;;;;;;;;;5056100;28;20031;-90
2022/07/16 09:19:16;;;;;;;3.63;3.33;;;;;;;;;;5056107;28;20033;-89
2022/07/16 09:22:01;;;;;;;4.30;3.90;;;;;;;;;;5056474;28;20039;-89
2022/07/16 09:24:40;;;;;;;4.10;3.70;;;;;;;;;;5039922;28;20386;-89
2022/07/16 09:27:06;;;;;;;5.10;3.60;;;;;;;;;;5036779;28;20025;-90
2022/07/16 09:29:49;;;;;;;4.85;3.92;;;;;;;;;;5035936;28;20082;-89
2022/07/16 09:32:30;;;;;;;5.53;4.32;;;;;;;;;;5035759;28;20045;-91
2022/07/16 09:35:06;;;;;;;4.20;3.80;;;;;;;;;;5036053;28;20535;-89
2022/07/16 09:37:46;;;;;;;4.38;3.70;;;;;;;;;;5054333;28;20470;-89
2022/07/16 09:40:13;;;;;;;4.77;3.77;;;;;;;;;;5060085;28;20021;-90
2022/07/16 09:42:42;;;;;;;3.67;3.35;;;;;;;;;;5041432;28;20311;-89
2022/07/16 09:45:21;;;;;;;4.82;3.45;;;;;;;;;;5040400;28;20086;-89
2022/07/16 09:47:50;;;;;;;4.65;3.90;;;;;;;;;;5040119;28;20025;-90
2022/07/16 09:50:18;;;;;;;4.13;3.45;;;;;;;;;;5039863;28;20029;-89
2022/07/16 09:52:46;;;;;;;4.45;3.53;;;;;;;;;;5048054;28;20483;-89
2022/07/16 09:55:13;;;;;;;4.90;3.58;;;;;;;;;;5044731;28;20044;-89
2022/07/16 09:57:41;;;;;;;3.80;3.50;;;;;;;;;;5048982;28;20028;-89
2022/07/16 10:00:10;;;;;;;3.42;3.00;;;;;;;;;;5057053;28;20021;-90
2022/07/16 10:02:42;;;;;;;4.35;3.63;;;;;;;;;;5049281;28;20395;-89
2022/07/16 10:05:11;;;;;;;4.38;3.50;;;;;;;;;;5059847;28;20391;-90
2022/07/16 10:07:39;;;;;;;5.40;3.67;;;;;;;;;;5059486;28;20037;-89
2022/07/16 10:10:06;;;;;;;3.67;3.38;;;;;;;;;;5059365;28;20020;-90
2022/07/16 10:12:32;;;;;;;3.97;3.58;;;;;;;;;;5059622;28;20032;-90
2022/07/16 10:15:01;;;;;;;3.85;3.25;;;;;;;;;;5059223;28;20021;-89
2022/07/16 10:17:39;;;;;;;4.35;3.50;;;;;;;;;;5059261;28;20383;-89
2022/07/16 10:20:05;;;;;;;4.65;3.33;;;;;;;;;;5039357;28;20052;-89
2022/07/16 10:22:37;;;;;;;3.72;3.42;;;;;;;;;;5039341;28;20036;-90
2022/07/16 10:25:10;;;;;;;3.83;3.47;;;;;;;;;;5039399;28;20032;-90
2022/07/16 10:27:37;;;;;;;3.70;3.28;;;;;;;;;;5041441;28;20132;-89
2022/07/16 10:30:09;;;;;;;6.40;3.17;;;;;;;;;;5059391;28;20478;-89
2022/07/16 10:32:54;;;;;;;3.40;3.10;;;;;;;;;;5054852;28;20037;-89
2022/07/16 10:35:29;;;;;;;3.40;3.00;;;;;;;;;;5039212;28;20116;-89
2022/07/16 10:38:10;;;;;;;3.65;3.20;;;;;;;;;;5038993;28;20387;-90
2022/07/16 10:40:37;;;;;;;4.00;3.13;;;;;;;;;;5039071;28;20017;-90
2022/07/16 10:43:12;;;;;;;3.80;3.47;;;;;;;;;;5039269;28;20265;-91
2022/07/16 10:45:52;;;;;;;4.28;3.17;;;;;;;;;;5039271;28;20021;-90
2022/07/16 10:48:21;;;;;;;4.18;3.65;;;;;;;;;;5055691;28;20025;-89
2022/07/16 10:51:09;;;;;;;3.72;3.42;;;;;;;;;;5054962;28;20021;-89
2022/07/16 10:54:00;;;;;;;3.50;3.20;;;;;;;;;;5056144;28;20490;-89
2022/07/16 10:56:40;;;;;;;3.63;3.20;;;;;;;;;;5055673;28;20017;-89
2022/07/16 10:59:10;;;;;;;4.68;3.20;;;;;;;;;;5055229;28;20112;-90
2022/07/16 11:01:37;;;;;;;3.40;3.10;;;;;;;;;;5055119;28;20399;-89
2022/07/16 11:04:03;;;;;;;3.47;3.17;;;;;;;;;;5055132;28;20372;-90
2022/07/16 11:06:30;;;;;;;4.85;3.22;;;;;;;;;;5056447;28;20028;-90
2022/07/16 11:09:00;;;;;;;3.28;3.05;;;;;;;;;;5058407;28;20066;-89
2022/07/16 11:11:33;;;;;;;3.42;3.13;;;;;;;;;;5058328;28;20123;-90
2022/07/16 11:13:59;;;;;;;3.28;2.92;;;;;;;;;;5059109;28;20028;-90
2022/07/16 11:16:28;;;;;;;5.50;3.28;;;;;;;;;;5058175;28;20031;-90
2022/07/16 11:18:54;;;;;;;4.13;3.20;;;;;;;;;;5056970;28;20017;-89
2022/07/16 11:21:21;;;;;;;4.40;3.00;;;;;;;;;;5058194;28;20502;-89
2022/07/16 11:23:58;;;;;;;3.55;3.20;;;;;;;;;;5058392;28;20020;-90
2022/07/16 11:26:30;;;;;;;4.38;3.28;;;;;;;;;;5057908;28;20069;-90
2022/07/16 11:28:59;;;;;;;3.45;3.17;;;;;;;;;;5058438;28;20025;-90
2022/07/16 11:31:38;;;;;;;3.72;3.40;;;;;;;;;;5057708;28;20039;-90
2022/07/16 11:34:08;;;;;;;3.85;3.05;;;;;;;;;;5057994;28;20020;-89
2022/07/16 11:36:41;;;;;;;3.42;3.08;;;;;;;;;;5058192;28;20052;-89
2022/07/16 11:39:11;;;;;;;3.08;2.78;;;;;;;;;;5058029;28;20479;-89
2022/07/16 11:41:39;;;;;;;3.08;2.83;;;;;;;;;;5057829;28;20382;-90
2022/07/16 11:44:11;;;;;;;3.28;3.03;;;;;;;;;;5040059;28;20032;-90
2022/07/16 11:46:43;;;;;;;3.72;3.00;;;;;;;;;;5037748;28;20022;-90
2022/07/16 11:49:12;;;;;;;3.33;3.03;;;;;;;;;;5038261;28;20075;-90
2022/07/16 11:51:41;;;;;;;3.90;3.08;;;;;;;;;;5037961;28;20017;-90
2022/07/16 11:54:10;;;;;;;4.32;3.20;;;;;;;;;;5037669;28;20391;-89
2022/07/16 11:56:37;;;;;;;4.13;2.80;;;;;;;;;;5037464;28;20021;-89
2022/07/16 11:59:24;;;;;;;3.65;2.92;;;;;;;;;;5045337;28;20020;-88
2022/07/16 12:02:12;;;;;;;3.40;3.10;;;;;;;;;;5055958;28;20029;-89
2022/07/16 12:04:46;;;;;;;4.47;3.03;;;;;;;;;;5056947;28;20123;-90
2022/07/16 12:07:29;;;;;;;2.97;2.70;;;;;;;;;;5037413;28;20043;-89
2022/07/16 12:10:00;;;;;;;3.60;3.00;;;;;;;;;;5037041;28;20025;-89
2022/07/16 12:12:27;;;;;;;4.03;3.00;;;;;;;;;;5037206;28;20613;-88
2022/07/16 12:14:54;;;;;;;3.20;2.90;;;;;;;;;;5055032;28;20037;-91
2022/07/16 12:17:41;;;;;;;6.05;3.03;;;;;;;;;;5057280;28;20024;-91
2022/07/16 12:20:10;;;;;;;4.65;3.15;;;;;;;;;;5057417;28;20016;-90
2022/07/16 12:22:43;;;;;;;7.55;3.40;;;;;;;;;;5057482;28;20028;-91
2022/07/16 12:25:22;;;;;;;3.35;2.67;;;;;;;;;;5057292;28;20059;-91
2022/07/16 12:28:07;;;;;;;;;;;;;;;;;;;;;
2022/07/16 12:30:34;;;;;;;3.20;2.90;;;;;;;;;;5055604;28;20033;-91
2022/07/16 12:33:00;;;;;;;3.33;2.88;;;;;;;;;;5038017;28;20049;-91
2022/07/16 12:38:41;;;;;;;3.03;2.72;;;;;;;;;;5054281;28;20036;-91
2022/07/16 12:41:12;;;;;;;5.00;3.10;;;;;;;;;;5037481;28;20076;-90
2022/07/16 12:43:41;;;;;;;3.10;2.80;;;;;;;;;;5037338;28;20029;-90
2022/07/16 12:46:16;;;;;;;3.28;3.05;;;;;;;;;;5037065;28;20029;-89
2022/07/16 12:48:47;;;;;;;5.97;2.60;;;;;;;;;;5036886;28;20132;-91
2022/07/16 12:51:14;;;;;;;2.75;2.55;;;;;;;;;;5036877;28;20033;-90
2022/07/16 12:53:41;;;;;;;3.00;2.70;;;;;;;;;;5036848;28;20383;-90
2022/07/16 12:58:57;;;;;;;3.63;2.70;;;;;;;;;;5054923;28;20028;-90
2022/07/16 13:01:24;;;;;;;3.20;2.90;;;;;;;;;;5037071;28;20029;-92
2022/07/16 13:03:53;;;;;;;2.92;2.72;;;;;;;;;;5036671;28;20021;-91
2022/07/16 13:06:22;;;;;;;4.05;2.90;;;;;;;;;;5036482;28;20017;-90
2022/07/16 13:08:51;;;;;;;3.28;2.97;;;;;;;;;;5037178;28;20025;-92
2022/07/16 13:11:20;;;;;;;3.45;3.10;;;;;;;;;;5037681;28;20024;-91
2022/07/16 13:13:57;;;;;;;3.70;2.80;;;;;;;;;;5056572;28;20032;-91
2022/07/16 13:16:24;;;;;;;4.22;2.78;;;;;;;;;;5056323;28;20021;-92
2022/07/16 13:18:52;;;;;;;3.20;2.88;;;;;;;;;;5057449;28;20462;-91
2022/07/16 13:21:34;;;;;;;2.88;2.50;;;;;;;;;;5056480;28;20016;-91
2022/07/16 13:24:03;;;;;;;4.03;2.90;;;;;;;;;;5056563;28;20048;-91
2022/07/16 13:26:33;;;;;;;4.65;2.70;;;;;;;;;;5056438;28;20025;-91
2022/07/16 13:29:01;;;;;;;5.07;2.72;;;;;;;;;;5056520;28;20394;-90
2022/07/16 13:31:30;;;;;;;4.00;2.92;;;;;;;;;;5056255;28;20036;-91
2022/07/16 13:34:03;;;;;;;3.55;2.70;;;;;;;;;;5056628;28;20046;-91
2022/07/16 13:36:30;;;;;;;5.65;2.75;;;;;;;;;;5056196;28;20025;-91
2022/07/16 13:39:03;;;;;;;3.38;2.72;;;;;;;;;;5056081;28;20016;-91
2022/07/16 13:41:33;;;;;;;3.50;2.80;;;;;;;;;;5056273;28;20447;-91
2022/07/16 13:44:01;;;;;;;3.78;2.60;;;;;;;;;;5056304;28;20091;-92
2022/07/16 13:46:28;;;;;;;2.63;2.42;;;;;;;;;;5056354;28;20550;-91
2022/07/16 13:48:54;;;;;;;4.30;3.00;;;;;;;;;;5056171;28;20052;-91
2022/07/16 13:51:21;;;;;;;5.40;2.83;;;;;;;;;;5056641;28;20111;-93
2022/07/16 13:54:04;;;;;;;2.88;2.65;;;;;;;;;;5056377;28;20024;-92
2022/07/16 13:56:33;;;;;;;3.58;2.55;;;;;;;;;;5056530;28;20025;-91
2022/07/16 13:59:02;;;;;;;3.72;2.70;;;;;;;;;;5056185;28;20023;-91
2022/07/16 14:01:30;;;;;;;3.03;2.75;;;;;;;;;;5056045;28;20114;-92
2022/07/16 14:04:09;;;;;;;4.30;2.45;;;;;;;;;;5056660;28;20020;-91
2022/07/16 14:06:36;;;;;;;3.90;2.65;;;;;;;;;;5055948;28;20028;-90
2022/07/16 14:09:03;;;;;;;3.13;2.80;;;;;;;;;;5055697;28;20111;-91
2022/07/16 14:11:32;;;;;;;4.18;2.72;;;;;;;;;;5056195;28;20100;-89
2022/07/16 14:14:00;;;;;;;2.97;2.60;;;;;;;;;;5056560;28;20028;-92
2022/07/16 14:16:31;;;;;;;3.15;2.40;;;;;;;;;;5056461;28;20115;-92
2022/07/16 14:19:05;;;;;;;;;;;;;;;;;;5056538;28;20424;-90
2022/07/16 14:21:33;;;;;;;3.17;2.50;;;;;;;;;;5055786;28;20003;-91
2022/07/16 14:24:02;;;;;;;4.32;3.00;;;;;;;;;;5044053;28;20025;-90
2022/07/16 14:26:43;;;;;;;7.25;2.80;;;;;;;;;;5040290;28;20382;-93
2022/07/16 14:29:12;;;;;;;3.20;2.63;;;;;;;;;;5040372;28;20025;-91
2022/07/16 14:31:41;;;;;;;3.47;2.70;;;;;;;;;;5039701;28;20048;-92
2022/07/16 14:34:10;;;;;;;4.13;3.00;;;;;;;;;;5035826;28;20049;-91
2022/07/16 14:36:37;;;;;;;3.13;2.50;;;;;;;;;;5020041;28;20554;-91
2022/07/16 14:39:03;;;;;;;2.50;2.22;;;;;;;;;;5020247;28;20037;-93
2022/07/16 14:41:32;;;;;;;3.25;2.92;;;;;;;;;;5020278;28;20032;-91
2022/07/16 14:44:00;;;;;;;3.17;2.88;;;;;;;;;;5019826;28;20112;-91
2022/07/16 14:46:34;;;;;;;3.03;2.75;;;;;;;;;;5019829;28;20057;-91
2022/07/16 14:49:00;;;;;;;2.88;2.67;;;;;;;;;;5019902;28;20025;-92
2022/07/16 14:51:29;;;;;;;3.10;2.70;;;;;;;;;;5019949;28;20025;-90
2022/07/16 14:53:55;;;;;;;5.00;2.95;;;;;;;;;;5019861;28;20061;-91
2022/07/16 14:56:21;;;;;;;5.28;2.85;;;;;;;;;;5019732;28;20045;-92
2022/07/16 14:58:50;;;;;;;3.53;3.22;;;;;;;;;;5019474;28;20028;-91
2022/07/16 15:01:21;;;;;;;3.15;2.85;;;;;;;;;;5019634;28;20022;-91
2022/07/16 15:03:48;;;;;;;3.35;2.80;;;;;;;;;;5019036;28;20029;-91
2022/07/16 15:06:15;;;;;;;3.22;2.83;;;;;;;;;;5019341;28;20368;-91
2022/07/16 15:08:42;;;;;;;4.72;3.05;;;;;;;;;;5025139;28;20095;-91
2022/07/16 15:11:18;;;;;;;3.97;3.00;;;;;;;;;;5039466;28;20025;-91
2022/07/16 15:13:44;;;;;;;5.00;2.95;;;;;;;;;;5039868;28;20033;-91
2022/07/16 15:16:13;;;;;;;5.15;3.08;;;;;;;;;;5039295;28;20029;-91
2022/07/16 15:18:41;;;;;;;4.15;3.15;;;;;;;;;;5039224;28;20028;-92
2022/07/16 15:21:24;;;;;;;4.15;3.30;;;;;;;;;;5039219;28;20021;-92
2022/07/16 15:23:53;;;;;;;4.13;3.25;;;;;;;;;;5040249;28;20456;-91
2022/07/16 15:26:22;;;;;;;3.63;2.65;;;;;;;;;;5039105;28;20029;-91
2022/07/16 15:28:51;;;;;;;2.80;2.60;;;;;;;;;;5038777;28;20025;-90
2022/07/16 15:31:22;;;;;;;4.82;2.97;;;;;;;;;;5038845;28;20041;-90
2022/07/16 15:33:48;;;;;;;3.25;2.70;;;;;;;;;;5039222;28;20115;-91
2022/07/16 15:36:15;;;;;;;5.65;2.95;;;;;;;;;;5038873;28;20029;-93
2022/07/16 15:38:42;;;;;;;4.22;3.00;;;;;;;;;;5038855;28;20021;-91
2022/07/16 15:41:24;;;;;;;3.10;2.80;;;;;;;;;;5039647;28;20028;-91
2022/07/16 15:43:53;;;;;;;5.80;2.95;;;;;;;;;;5039298;28;20025;-91
2022/07/16 15:46:22;;;;;;;3.38;2.92;;;;;;;;;;5039362;28;20017;-90
2022/07/16 15:49:03;;;;;;;3.17;2.95;;;;;;;;;;5040009;28;20094;-91
2022/07/16 15:51:51;;;;;;;2.72;2.50;;;;;;;;;;5039178;28;20029;-91
2022/07/16 15:54:25;;;;;;;3.90;2.85;;;;;;;;;;5039164;28;20009;-91
2022/07/16 15:56:52;;;;;;;3.63;3.28;;;;;;;;;;5039305;28;20021;-90
2022/07/16 15:59:26;;;;;;;4.18;3.03;;;;;;;;;;5039208;28;20024;-90
2022/07/16 16:01:52;;;;;;;4.47;3.05;;;;;;;;;;5038811;28;20032;-91
2022/07/16 16:04:20;;;;;;;4.35;2.75;;;;;;;;;;5038829;28;20039;-92